Time;durP1;ratioP1;P1;durP2;ratioP2;P2;SDS_P1;SDS_P2;PMS_P1;PMS_P2;Temp;Humidity;BMP_temperature;BMP_pressure;BME280_temperature;BME280_humidity;BME280_pressure;Samples;Min_cycle;Max_cycle;Signal;HPM_P1;HPM_P2
2023/11/22 00:00:17;;;;;;;7.30;3.53;;;;;;;6.11;78.08;101647.13;5061594;28;20071;-48
2023/11/22 00:02:44;;;;;;;11.10;3.95;;;;;;;6.11;77.95;101658.28;5066758;28;20045;-48
2023/11/22 00:05:11;;;;;;;10.35;4.47;;;;;;;6.12;77.01;101652.31;5062585;28;20125;-44
2023/11/22 00:07:43;;;;;;;9.88;4.00;;;;;;;6.12;78.44;101649.75;5057217;28;20060;-46
2023/11/22 00:10:12;;;;;;;8.55;3.58;;;;;;;6.12;78.61;101656.59;5066554;28;20560;-43
2023/11/22 00:12:38;;;;;;;8.35;4.47;;;;;;;6.13;77.50;101645.50;5061887;28;20102;-48
2023/11/22 00:15:07;;;;;;;13.38;4.63;;;;;;;6.12;77.97;101639.44;5056696;28;20126;-45
2023/11/22 00:17:34;;;;;;;8.00;3.85;;;;;;;6.13;77.76;101630.94;5054218;28;20123;-44
2023/11/22 00:20:05;;;;;;;8.23;4.43;;;;;;;6.12;77.87;101639.44;5061090;28;20041;-46
2023/11/22 00:22:32;;;;;;;8.65;3.42;;;;;;;6.12;78.25;101634.31;5060005;28;20052;-48
2023/11/22 00:25:01;;;;;;;9.63;4.00;;;;;;;6.12;77.97;101636.88;5062212;28;20150;-47
2023/11/22 00:27:29;;;;;;;10.73;4.30;;;;;;;6.11;77.60;101637.72;5066939;28;20046;-48
2023/11/22 00:29:57;;;;;;;13.73;4.60;;;;;;;6.12;77.40;101633.44;5061678;28;20805;-46
2023/11/22 00:32:25;;;;;;;11.18;4.32;;;;;;;6.12;78.18;101642.03;5057239;28;20105;-46
2023/11/22 00:34:52;;;;;;;10.48;4.88;;;;;;;6.12;77.24;101643.75;5056609;28;20139;-47
2023/11/22 00:37:19;;;;;;;13.18;4.72;;;;;;;6.12;78.47;101639.44;5061544;28;20053;-44
2023/11/22 00:39:46;;;;;;;11.25;4.90;;;;;;;6.12;77.38;101638.59;5061246;28;20052;-49
2023/11/22 00:42:13;;;;;;;14.15;5.03;;;;;;;6.12;77.61;101624.03;5057576;28;20617;-49
2023/11/22 00:44:40;;;;;;;11.63;5.18;;;;;;;6.12;77.37;101629.16;5056454;28;20052;-44
2023/11/22 00:47:06;;;;;;;15.05;6.00;;;;;;;6.11;78.10;101627.41;5058208;28;20520;-49
2023/11/22 00:49:34;;;;;;;14.20;5.85;;;;;;;6.13;78.21;101624.91;5058730;28;20499;-44
2023/11/22 00:52:01;;;;;;;12.15;4.95;;;;;;;6.11;78.92;101627.41;5052354;28;20045;-46
2023/11/22 00:54:29;;;;;;;12.73;5.55;;;;;;;6.10;78.36;101620.53;5060726;28;20051;-48
2023/11/22 00:56:56;;;;;;;9.07;4.70;;;;;;;6.10;77.32;101619.63;5054922;28;20040;-50
2023/11/22 00:59:23;;;;;;;9.93;4.80;;;;;;;6.09;77.46;101613.63;5055766;28;20048;-44
2023/11/22 01:01:49;;;;;;;12.95;5.53;;;;;;;6.09;77.39;101608.47;5063683;28;20048;-50
2023/11/22 01:04:16;;;;;;;15.70;5.13;;;;;;;6.09;77.21;101612.75;5061040;28;20041;-47
2023/11/22 01:06:43;;;;;;;15.32;5.78;;;;;;;6.09;78.40;101621.34;5056604;28;20075;-47
2023/11/22 01:09:13;;;;;;;10.50;5.07;;;;;;;6.08;78.39;101622.13;5060053;28;20044;-52
2023/11/22 01:11:40;;;;;;;14.55;5.40;;;;;;;6.07;77.80;101620.38;5052541;28;20045;-48
2023/11/22 01:14:07;;;;;;;9.32;4.72;;;;;;;6.08;77.55;101618.72;5064361;28;20056;-50
2023/11/22 01:16:36;;;;;;;10.73;5.05;;;;;;;6.09;78.65;101623.91;5057856;28;20048;-49
2023/11/22 01:19:04;;;;;;;11.18;5.43;;;;;;;6.08;78.23;101622.13;5061334;28;20052;-52
2023/11/22 01:21:31;;;;;;;14.02;5.13;;;;;;;6.08;78.80;101621.28;5060526;28;20562;-51
2023/11/22 01:23:58;;;;;;;12.65;5.00;;;;;;;6.09;78.58;101631.63;5061661;28;20557;-47
2023/11/22 01:26:25;;;;;;;14.93;6.20;;;;;;;6.09;78.88;101639.34;5061108;28;20490;-45
2023/11/22 01:28:52;;;;;;;17.45;5.60;;;;;;;6.09;78.25;101623.91;5057252;28;20053;-44
2023/11/22 01:31:21;;;;;;;18.00;5.70;;;;;;;6.10;78.03;101620.53;5061958;28;20071;-49
2023/11/22 01:33:48;;;;;;;12.48;5.28;;;;;;;6.08;77.67;101629.84;5055863;28;20051;-49
2023/11/22 01:36:15;;;;;;;11.38;5.88;;;;;;;6.08;77.98;101639.28;5065986;28;20049;-44
2023/11/22 01:38:44;;;;;;;11.05;5.85;;;;;;;6.07;78.12;101630.69;5058967;28;20041;-47
2023/11/22 01:41:12;;;;;;;12.65;5.35;;;;;;;6.07;78.01;101625.53;5059834;28;20048;-49
2023/11/22 01:43:41;;;;;;;10.77;4.82;;;;;;;6.06;78.69;101631.50;5066764;28;20048;-50
2023/11/22 01:46:08;;;;;;;13.32;6.88;;;;;;;6.05;78.92;101619.47;5063002;28;20401;-48
2023/11/22 01:48:36;;;;;;;10.50;5.40;;;;;;;6.05;77.79;101614.31;5060439;28;20049;-47
2023/11/22 01:51:04;;;;;;;12.30;5.38;;;;;;;6.04;79.11;101609.97;5063638;28;20049;-48
2023/11/22 01:53:32;;;;;;;15.25;4.97;;;;;;;6.03;78.18;101618.47;5057864;28;20044;-52
2023/11/22 01:55:59;;;;;;;11.07;5.13;;;;;;;6.03;78.08;101628.75;5064199;28;20056;-52
2023/11/22 01:58:26;;;;;;;13.60;4.95;;;;;;;6.03;78.71;101619.41;5064197;28;20037;-47
2023/11/22 02:00:53;;;;;;;10.00;4.97;;;;;;;6.05;78.07;101622.03;5065205;28;20040;-45
2023/11/22 02:03:21;;;;;;;13.38;5.00;;;;;;;6.05;77.67;101616.88;5058757;28;20080;-45
2023/11/22 02:05:49;;;;;;;9.70;5.30;;;;;;;6.05;77.45;101606.59;5059374;28;20071;-48
2023/11/22 02:08:18;;;;;;;9.82;4.57;;;;;;;6.04;78.71;101595.44;5058161;28;20036;-47
2023/11/22 02:10:49;;;;;;;16.30;5.70;;;;;;;6.04;78.57;101591.97;5057487;28;20048;-49
2023/11/22 02:13:16;;;;;;;8.18;3.72;;;;;;;6.04;77.47;101594.53;5057711;28;20140;-42
2023/11/22 02:15:42;;;;;;;8.68;4.05;;;;;;;6.03;78.57;101595.31;5059850;28;20136;-44
2023/11/22 02:18:09;;;;;;;8.27;4.43;;;;;;;6.03;77.70;101603.03;5054896;28;20056;-46
2023/11/22 02:20:41;;;;;;;8.27;3.75;;;;;;;6.01;78.85;101610.69;5063714;28;20060;-45
2023/11/22 02:23:09;;;;;;;8.95;4.30;;;;;;;6.03;77.65;101608.19;5060177;28;20497;-45
2023/11/22 02:25:36;;;;;;;8.15;4.43;;;;;;;6.03;79.04;101608.19;5055550;28;20040;-46
2023/11/22 02:28:02;;;;;;;15.45;4.35;;;;;;;6.04;79.03;101599.69;5058957;28;20468;-43
2023/11/22 02:30:29;;;;;;;8.63;3.90;;;;;;;6.03;78.21;101592.75;5058424;28;20562;-48
2023/11/22 02:32:56;;;;;;;9.23;4.75;;;;;;;6.03;78.98;101590.19;5060614;28;20048;-41
2023/11/22 02:35:23;;;;;;;9.73;4.35;;;;;;;6.03;78.64;101591.09;5056148;28;20045;-50
2023/11/22 02:37:50;;;;;;;12.25;4.65;;;;;;;6.03;77.73;101587.59;5058317;28;20449;-45
2023/11/22 02:42:54;;;;;;;9.27;4.20;;;;;;;6.04;78.67;101581.66;5052931;27;20396;-45
2023/11/22 02:45:28;;;;;;;7.78;3.70;;;;;;;6.03;78.99;101585.03;5001858;28;20050;-47
2023/11/22 02:47:55;;;;;;;12.30;3.90;;;;;;;6.02;77.77;101576.44;5002448;28;20550;-48
2023/11/22 02:50:22;;;;;;;7.95;3.80;;;;;;;6.03;78.10;101573.09;5000142;28;20491;-47
2023/11/22 02:52:49;;;;;;;8.95;4.00;;;;;;;6.03;78.39;101567.03;5004320;28;20053;-46
2023/11/22 02:55:16;;;;;;;11.55;4.15;;;;;;;6.04;77.53;101563.66;5007501;28;20140;-45
2023/11/22 02:57:42;;;;;;;11.38;4.85;;;;;;;6.03;77.94;101572.19;5015652;28;20133;-42
2023/11/22 03:00:14;;;;;;;11.07;3.80;;;;;;;6.02;78.70;101565.28;4996744;28;20054;-51
2023/11/22 03:02:41;;;;;;;9.68;3.80;;;;;;;6.02;78.98;101578.13;5012404;28;20380;-48
2023/11/22 03:05:09;;;;;;;8.48;3.85;;;;;;;6.02;77.74;101578.13;5013072;28;20051;-45
2023/11/22 03:07:37;;;;;;;9.43;4.10;;;;;;;6.02;78.69;101591.00;4996790;28;20050;-47
2023/11/22 03:10:04;;;;;;;8.55;4.43;;;;;;;6.03;79.16;101582.47;5001516;28;20066;-44
2023/11/22 03:12:31;;;;;;;8.13;3.70;;;;;;;6.01;77.62;101590.13;5006029;28;20077;-41
2023/11/22 03:15:00;;;;;;;8.68;4.10;;;;;;;6.01;77.56;101595.25;5023123;28;20487;-48
2023/11/22 03:17:29;;;;;;;15.05;4.78;;;;;;;6.02;78.47;101591.00;5016193;28;20095;-46
2023/11/22 03:19:56;;;;;;;11.07;4.45;;;;;;;6.02;78.63;101596.16;5023143;28;20207;-48
2023/11/22 03:22:24;;;;;;;11.48;4.28;;;;;;;6.03;78.33;101587.59;5022368;28;20073;-45
2023/11/22 03:24:52;;;;;;;7.60;3.75;;;;;;;6.03;79.36;101592.75;5016283;28;20046;-47
2023/11/22 03:27:22;;;;;;;12.98;3.97;;;;;;;6.03;77.86;101592.75;5015036;28;20057;-45
2023/11/22 03:29:49;;;;;;;8.88;4.13;;;;;;;6.01;78.67;101578.97;5021235;28;20050;-42
2023/11/22 03:32:17;;;;;;;10.45;4.22;;;;;;;6.02;77.96;101575.56;5016714;28;20050;-45
2023/11/22 03:34:44;;;;;;;14.32;5.18;;;;;;;6.00;78.64;101572.03;5019887;28;20053;-44
2023/11/22 03:37:10;;;;;;;9.63;4.82;;;;;;;5.99;79.35;101575.44;5021423;28;20073;-44
2023/11/22 03:39:37;;;;;;;7.55;3.92;;;;;;;5.99;78.13;101585.72;5020407;28;20051;-40
2023/11/22 03:42:05;;;;;;;10.23;4.90;;;;;;;5.98;78.94;101589.13;5017218;28;20049;-52
2023/11/22 03:44:31;;;;;;;11.10;4.40;;;;;;;5.97;78.73;101584.78;5017096;28;20395;-48
2023/11/22 03:46:58;;;;;;;9.93;4.82;;;;;;;5.98;77.90;101581.41;5022454;28;20498;-45
2023/11/22 03:49:25;;;;;;;11.43;4.97;;;;;;;5.97;79.16;101572.81;5017334;28;20095;-45
2023/11/22 03:51:51;;;;;;;12.23;4.90;;;;;;;5.97;77.92;101565.09;5019955;28;20053;-48
2023/11/22 03:54:18;;;;;;;9.85;4.75;;;;;;;5.97;78.75;101566.78;5005249;28;20056;-48
2023/11/22 03:56:45;;;;;;;13.52;4.47;;;;;;;5.97;78.49;101561.63;5002220;28;20096;-45
2023/11/22 03:59:12;;;;;;;8.45;3.88;;;;;;;5.98;77.79;101568.53;5007278;28;20057;-47
2023/11/22 04:01:39;;;;;;;8.13;3.70;;;;;;;5.96;79.29;101571.06;5004199;28;20702;-46
2023/11/22 04:04:06;;;;;;;11.35;4.00;;;;;;;5.97;78.00;101561.63;5001751;28;20062;-42
2023/11/22 04:06:33;;;;;;;10.85;4.18;;;;;;;5.98;78.88;101571.13;5006518;28;20573;-44
2023/11/22 04:09:01;;;;;;;10.90;4.20;;;;;;;5.98;78.08;101566.84;5005179;28;20450;-50
2023/11/22 04:11:29;;;;;;;10.02;4.38;;;;;;;5.98;78.02;101563.41;5007678;28;20505;-46
2023/11/22 04:13:55;;;;;;;11.55;4.78;;;;;;;5.96;78.79;101559.88;5007482;28;20111;-46
2023/11/22 04:16:22;;;;;;;9.23;4.25;;;;;;;5.96;77.96;101570.16;5001640;28;20050;-45
2023/11/22 04:18:49;;;;;;;10.75;4.78;;;;;;;5.95;78.12;101568.41;5002635;28;20148;-51
2023/11/22 04:21:17;;;;;;;9.35;4.57;;;;;;;5.94;78.31;101571.81;5003511;28;20050;-44
2023/11/22 04:23:44;;;;;;;10.65;4.22;;;;;;;5.92;78.62;101557.16;5006449;28;20550;-43
2023/11/22 04:26:11;;;;;;;9.90;4.10;;;;;;;5.90;78.92;101545.97;5005969;28;20053;-47
2023/11/22 04:28:37;;;;;;;8.55;4.40;;;;;;;5.88;79.61;101547.56;5005822;28;20534;-42
2023/11/22 04:31:05;;;;;;;9.40;4.13;;;;;;;5.86;78.82;101543.19;4997121;28;20042;-41
2023/11/22 04:33:31;;;;;;;12.70;4.50;;;;;;;5.83;78.81;101554.25;5011449;28;20060;-47
2023/11/22 04:35:59;;;;;;;9.15;4.75;;;;;;;5.84;79.35;101555.97;4999792;28;20168;-43
2023/11/22 04:38:25;;;;;;;11.10;4.68;;;;;;;5.83;78.92;101558.50;5001754;28;20050;-45
2023/11/22 04:40:52;;;;;;;10.00;4.75;;;;;;;5.82;79.82;101551.59;5004154;28;20064;-44
2023/11/22 04:43:19;;;;;;;9.98;4.68;;;;;;;5.82;78.82;101547.34;5005994;28;20041;-43
2023/11/22 04:45:46;;;;;;;8.00;4.18;;;;;;;5.82;78.29;101542.19;5002688;28;20057;-46
2023/11/22 04:48:16;;;;;;;10.55;4.65;;;;;;;5.83;79.89;101549.09;5001989;28;20053;-44
2023/11/22 04:50:42;;;;;;;12.95;4.80;;;;;;;5.85;78.68;101547.47;5001262;28;20136;-45
2023/11/22 04:53:10;;;;;;;10.75;4.70;;;;;;;5.88;79.29;101551.88;5002885;28;20507;-45
2023/11/22 04:55:37;;;;;;;10.52;4.88;;;;;;;5.88;79.74;101544.16;5004781;28;20156;-43
2023/11/22 04:58:04;;;;;;;15.40;5.32;;;;;;;5.89;79.83;101543.31;5002759;28;20407;-50
2023/11/22 05:00:31;;;;;;;9.60;4.80;;;;;;;5.89;78.99;101554.50;5033356;28;20030;-46
2023/11/22 05:02:57;;;;;;;10.80;4.63;;;;;;;5.90;79.59;101556.25;5003346;28;20053;-44
2023/11/22 05:05:24;;;;;;;15.88;4.97;;;;;;;5.90;79.48;101565.66;4998849;28;20555;-47
2023/11/22 05:07:51;;;;;;;14.48;4.10;;;;;;;5.89;78.62;101544.22;4999540;28;20111;-43
2023/11/22 05:10:19;;;;;;;13.70;4.78;;;;;;;5.88;79.25;101539.88;5001362;28;20724;-43
2023/11/22 05:12:46;;;;;;;11.95;4.32;;;;;;;5.89;78.62;101535.59;5005059;28;20080;-52
2023/11/22 05:15:14;;;;;;;11.80;5.03;;;;;;;5.86;79.63;101528.66;5002112;28;20052;-47
2023/11/22 05:17:40;;;;;;;12.98;5.05;;;;;;;5.85;78.21;101521.75;4999933;28;20055;-46
2023/11/22 05:20:09;;;;;;;10.88;5.18;;;;;;;5.83;79.89;101523.38;5002931;28;20070;-44
2023/11/22 05:22:37;;;;;;;12.18;4.47;;;;;;;5.83;79.80;101523.38;5001528;28;20049;-45
2023/11/22 05:25:04;;;;;;;12.75;5.00;;;;;;;5.85;78.42;101529.47;5000099;28;20053;-48
2023/11/22 05:27:32;;;;;;;8.70;4.75;;;;;;;5.83;79.00;101518.25;5006974;28;20050;-46
2023/11/22 05:30:00;;;;;;;11.63;5.15;;;;;;;5.85;80.07;101516.63;5001473;28;20053;-43
2023/11/22 05:32:29;;;;;;;12.45;4.70;;;;;;;5.83;78.80;101507.94;5003911;28;20427;-45
2023/11/22 05:34:55;;;;;;;11.98;4.88;;;;;;;5.83;80.12;101502.81;5001371;28;20053;-42
2023/11/22 05:37:23;;;;;;;9.52;4.05;;;;;;;5.84;79.89;101486.56;4998111;28;20085;-43
2023/11/22 05:39:52;;;;;;;10.20;5.00;;;;;;;5.85;80.15;101505.44;4998781;28;20062;-43
2023/11/22 05:42:19;;;;;;;10.45;5.50;;;;;;;5.86;79.35;101500.38;5001395;28;21093;-45
2023/11/22 05:44:46;;;;;;;11.48;5.68;;;;;;;5.86;79.92;101490.09;5001403;28;20074;-44
2023/11/22 05:47:13;;;;;;;8.95;4.38;;;;;;;5.88;79.26;101485.00;4998181;28;20050;-50
2023/11/22 05:49:40;;;;;;;13.48;4.47;;;;;;;5.87;79.22;101478.97;5007311;28;20049;-44
2023/11/22 05:52:06;;;;;;;9.40;4.78;;;;;;;5.87;80.28;101480.66;5002585;28;20056;-45
2023/11/22 05:54:33;;;;;;;9.52;3.80;;;;;;;5.87;80.18;101489.25;5008640;28;20104;-48
2023/11/22 05:57:00;;;;;;;11.95;4.30;;;;;;;5.88;80.17;101493.56;5008430;28;20054;-43
2023/11/22 05:59:27;;;;;;;10.38;4.80;;;;;;;5.89;80.22;101495.34;5006419;28;20057;-43
2023/11/22 06:01:54;;;;;;;11.02;4.65;;;;;;;5.88;79.77;101501.28;5002389;28;20142;-52
2023/11/22 06:04:20;;;;;;;10.00;4.78;;;;;;;5.90;79.24;101507.38;5004465;28;20096;-43
2023/11/22 06:06:47;;;;;;;9.82;4.65;;;;;;;5.91;79.05;101511.72;4996379;28;20050;-48
2023/11/22 06:09:14;;;;;;;10.07;4.43;;;;;;;5.94;80.08;101530.66;5000737;28;20072;-48
2023/11/22 06:11:41;;;;;;;9.02;4.78;;;;;;;5.96;79.67;101518.72;5007725;28;20042;-49
2023/11/22 06:14:08;;;;;;;13.60;5.05;;;;;;;5.97;79.60;101512.75;5000565;28;20051;-49
2023/11/22 06:16:35;;;;;;;11.65;5.05;;;;;;;6.00;80.50;101512.88;4998958;28;20728;-44
2023/11/22 06:19:01;;;;;;;12.60;5.00;;;;;;;6.00;78.86;101510.31;5001525;28;20466;-42
2023/11/22 06:21:28;;;;;;;9.63;4.97;;;;;;;6.00;79.08;101507.75;5002436;28;20045;-44
2023/11/22 06:23:57;;;;;;;10.48;4.90;;;;;;;6.01;80.08;101512.94;5004184;28;20491;-51
2023/11/22 06:26:25;;;;;;;9.57;4.63;;;;;;;6.00;79.78;101530.88;4995438;28;20046;-49
2023/11/22 06:28:52;;;;;;;12.75;5.90;;;;;;;6.03;79.33;101525.88;5004169;28;20470;-46
2023/11/22 06:31:19;;;;;;;12.15;5.45;;;;;;;6.05;80.14;101524.28;5000173;28;20365;-46
2023/11/22 06:33:45;;;;;;;11.43;5.38;;;;;;;6.07;79.84;101525.22;5001189;28;20057;-46
2023/11/22 06:36:14;;;;;;;11.52;5.03;;;;;;;6.09;79.81;101531.31;5005227;28;20045;-45
2023/11/22 06:38:41;;;;;;;8.60;4.50;;;;;;;6.10;79.10;101532.16;5004649;28;20045;-46
2023/11/22 06:41:08;;;;;;;11.95;5.60;;;;;;;6.11;80.49;101533.94;4999819;28;20053;-48
2023/11/22 06:43:35;;;;;;;14.02;5.00;;;;;;;6.12;79.06;101523.69;5003776;28;20647;-40
2023/11/22 06:46:05;;;;;;;11.48;4.97;;;;;;;6.14;79.77;101534.03;5001317;28;20050;-47
2023/11/22 06:48:33;;;;;;;11.20;5.75;;;;;;;6.13;80.43;101522.91;5006141;28;20061;-47
2023/11/22 06:51:00;;;;;;;14.57;5.70;;;;;;;6.13;78.77;101522.91;5003551;28;20172;-43
2023/11/22 06:53:27;;;;;;;15.20;4.70;;;;;;;6.16;80.09;101523.03;5002351;28;20054;-42
2023/11/22 06:55:54;;;;;;;12.73;5.55;;;;;;;6.16;79.71;101517.88;5001455;28;20058;-45
2023/11/22 06:58:21;;;;;;;12.80;4.43;;;;;;;6.16;79.78;101532.41;4998279;28;20042;-47
2023/11/22 07:00:48;;;;;;;12.85;4.90;;;;;;;6.19;79.69;101547.09;5002208;28;20045;-48
2023/11/22 07:03:15;;;;;;;10.23;4.65;;;;;;;6.20;80.14;101543.69;5003163;28;20046;-46
2023/11/22 07:05:43;;;;;;;9.77;4.57;;;;;;;6.22;80.26;101547.22;4996920;28;20077;-41
2023/11/22 07:08:11;;;;;;;16.90;5.47;;;;;;;6.24;80.42;101561.00;5003872;28;20057;-48
2023/11/22 07:10:38;;;;;;;10.60;5.53;;;;;;;6.24;79.70;101555.88;4995748;28;20050;-41
2023/11/22 07:13:05;;;;;;;12.93;5.10;;;;;;;6.26;79.92;101549.97;5002641;28;20057;-47
2023/11/22 07:15:31;;;;;;;13.80;5.13;;;;;;;6.26;80.28;101547.41;4999210;28;20585;-42
2023/11/22 07:17:59;;;;;;;12.02;5.20;;;;;;;6.27;80.17;101540.56;5006108;28;20050;-46
2023/11/22 07:20:27;;;;;;;9.63;4.68;;;;;;;6.29;79.27;101538.94;5004109;28;20089;-45
2023/11/22 07:22:57;;;;;;;8.40;3.72;;;;;;;6.29;79.14;101533.78;4997658;28;20042;-47
2023/11/22 07:25:24;;;;;;;9.73;4.32;;;;;;;6.29;80.27;101529.50;5002895;28;20396;-46
2023/11/22 07:27:53;;;;;;;10.05;4.25;;;;;;;6.30;80.32;101527.81;4997502;28;20397;-48
2023/11/22 07:30:22;;;;;;;9.93;3.90;;;;;;;6.28;79.24;101526.84;5008424;28;20057;-45
2023/11/22 07:32:51;;;;;;;9.65;3.42;;;;;;;6.27;79.38;101531.16;5002663;28;20046;-41
2023/11/22 07:35:19;;;;;;;7.03;3.35;;;;;;;6.28;79.49;101521.72;5005718;28;20046;-41
2023/11/22 07:37:47;;;;;;;9.60;3.85;;;;;;;6.29;79.46;101508.06;5003068;28;20141;-46
2023/11/22 07:40:14;;;;;;;9.52;4.28;;;;;;;6.27;80.27;101510.56;5010224;28;20049;-45
2023/11/22 07:42:43;;;;;;;10.18;3.67;;;;;;;6.28;79.11;101506.28;5005447;28;20057;-47
2023/11/22 07:45:11;;;;;;;10.38;3.70;;;;;;;6.29;79.23;101503.75;5002791;28;20164;-46
2023/11/22 07:47:41;;;;;;;8.43;3.60;;;;;;;6.29;79.03;101502.91;5008035;28;20546;-53
2023/11/22 07:50:09;;;;;;;7.47;3.72;;;;;;;6.32;79.07;101490.16;5004956;28;20042;-44
2023/11/22 07:52:37;;;;;;;8.55;3.75;;;;;;;6.31;78.95;101496.09;5007981;28;20100;-44
2023/11/22 07:55:07;;;;;;;5.60;2.97;;;;;;;6.31;79.06;101501.25;5001132;28;20111;-42
2023/11/22 07:57:34;;;;;;;;;;;;;;;6.24;80.35;101496.69;5002298;28;20152;-42
2023/11/22 08:00:05;;;;;;;8.30;3.08;;;;;;;6.31;79.64;101496.09;5010303;28;19926;-45
2023/11/22 08:02:31;;;;;;;10.13;3.78;;;;;;;6.34;78.47;101496.22;5011960;28;20060;-45
2023/11/22 08:05:03;;;;;;;10.63;3.55;;;;;;;6.36;79.32;101489.47;5004712;28;20045;-45
2023/11/22 08:07:32;;;;;;;8.05;4.30;;;;;;;6.38;78.53;101487.81;5003743;28;20625;-50
2023/11/22 08:10:09;;;;;;;8.23;3.35;;;;;;;6.41;80.05;101497.31;4998795;28;20054;-42
2023/11/22 08:12:37;;;;;;;7.15;3.42;;;;;;;6.42;79.21;101488.81;5005465;28;20134;-46
2023/11/22 08:15:05;;;;;;;13.05;3.70;;;;;;;6.46;79.86;101489.78;5008302;28;20050;-40
2023/11/22 08:17:32;;;;;;;7.60;2.47;;;;;;;6.43;80.29;101485.41;5009671;28;20057;-47
2023/11/22 08:20:00;;;;;;;9.77;3.20;;;;;;;6.45;79.75;101494.03;5004349;28;20052;-46
2023/11/22 08:22:28;;;;;;;8.05;3.55;;;;;;;6.46;79.36;101494.94;5000410;28;20485;-48
2023/11/22 08:24:57;;;;;;;6.07;1.77;;;;;;;6.43;79.60;101475.97;5005063;28;20054;-45
2023/11/22 08:27:24;;;;;;;6.20;2.85;;;;;;;6.50;79.27;101473.63;5001307;28;20046;-42
2023/11/22 08:29:50;;;;;;;6.82;3.33;;;;;;;6.52;79.76;101484.88;5008443;28;20054;-48
2023/11/22 08:32:20;;;;;;;5.68;3.30;;;;;;;6.54;79.20;101493.53;4999955;28;20102;-42
2023/11/22 08:34:47;;;;;;;7.60;2.92;;;;;;;6.56;79.39;101481.59;5007545;28;20054;-42
2023/11/22 08:37:14;;;;;;;9.63;3.38;;;;;;;6.59;80.00;101497.16;5011218;28;20046;-45
2023/11/22 08:39:41;;;;;;;6.18;2.58;;;;;;;6.60;79.87;101492.88;4999451;28;20132;-45
2023/11/22 08:42:09;;;;;;;7.70;2.60;;;;;;;6.61;78.70;101505.81;5005818;28;20050;-49
2023/11/22 08:44:36;;;;;;;10.30;2.85;;;;;;;6.64;78.48;101500.78;5003551;28;20049;-46
2023/11/22 08:47:04;;;;;;;6.00;2.70;;;;;;;6.67;79.54;101488.03;4996366;28;20049;-45
2023/11/22 08:49:30;;;;;;;5.90;3.05;;;;;;;6.68;79.36;101482.03;5004600;28;20057;-44
2023/11/22 08:51:59;;;;;;;7.85;3.75;;;;;;;6.73;79.94;101478.75;5007092;28;20608;-49
2023/11/22 08:54:28;;;;;;;5.95;2.60;;;;;;;6.74;78.48;101480.50;5005866;28;20133;-51
2023/11/22 08:56:57;;;;;;;6.60;2.67;;;;;;;6.76;79.83;101484.03;5003215;28;20155;-45
2023/11/22 08:59:23;;;;;;;10.00;3.10;;;;;;;6.76;79.79;101479.72;5006285;28;20049;-44
2023/11/22 09:01:50;;;;;;;6.47;3.35;;;;;;;6.79;79.16;101481.56;5006787;28;20053;-44
2023/11/22 09:04:18;;;;;;;7.63;2.78;;;;;;;6.80;79.36;101484.16;5009571;28;20056;-46
2023/11/22 09:06:47;;;;;;;8.63;3.03;;;;;;;6.83;78.86;101480.84;5005571;28;20065;-48
2023/11/22 09:09:15;;;;;;;9.82;2.83;;;;;;;6.82;78.98;101474.81;5005061;28;20096;-44
2023/11/22 09:11:41;;;;;;;7.40;2.92;;;;;;;6.83;78.59;101470.53;5005448;28;20655;-46
2023/11/22 09:14:10;;;;;;;5.47;2.10;;;;;;;6.86;79.54;101459.47;5007214;28;20069;-45
2023/11/22 09:16:38;;;;;;;6.22;1.92;;;;;;;6.87;78.15;101462.09;5005890;28;20045;-41
2023/11/22 09:19:07;;;;;;;8.50;2.38;;;;;;;6.87;79.60;101464.69;5005205;28;20092;-43
2023/11/22 09:21:34;;;;;;;7.25;2.38;;;;;;;6.90;78.97;101482.81;5004879;28;20410;-41
2023/11/22 09:24:01;;;;;;;6.25;1.88;;;;;;;6.90;78.37;101469.94;5006254;28;20046;-41
2023/11/22 09:26:27;;;;;;;8.45;2.65;;;;;;;6.91;79.08;101461.38;5002657;28;20664;-46
2023/11/22 09:28:54;;;;;;;5.45;2.60;;;;;;;6.93;78.78;101457.16;5004189;28;20054;-45
2023/11/22 09:31:21;;;;;;;7.05;2.30;;;;;;;6.93;79.17;101457.16;5000315;28;20050;-49
2023/11/22 09:33:48;;;;;;;4.75;2.05;;;;;;;6.96;79.04;101456.41;5000159;28;20076;-42
2023/11/22 09:36:15;;;;;;;6.03;2.83;;;;;;;6.97;78.97;101462.41;5002750;28;20061;-46
2023/11/22 09:38:42;;;;;;;6.00;2.80;;;;;;;6.99;79.03;101463.38;5001012;28;20041;-42
2023/11/22 09:41:09;;;;;;;7.80;2.28;;;;;;;6.99;78.41;101461.66;5004407;28;20046;-48
2023/11/22 09:43:36;;;;;;;4.28;1.92;;;;;;;7.02;78.43;101460.88;5007653;28;20049;-47
2023/11/22 09:46:03;;;;;;;4.07;1.90;;;;;;;7.04;78.93;101469.53;5006369;28;20157;-44
2023/11/22 09:48:31;;;;;;;4.03;1.70;;;;;;;7.03;79.28;101465.22;5005195;28;20053;-46
2023/11/22 09:54:00;;;;;;;5.40;3.35;;;;;;;7.07;79.01;101470.50;5028868;28;20763;-50
2023/11/22 09:56:27;;;;;;;5.25;2.63;;;;;;;7.11;78.89;101480.94;5010714;28;20100;-45
2023/11/22 09:58:57;;;;;;;5.72;2.10;;;;;;;7.15;78.31;101493.09;5010423;28;20054;-47
2023/11/22 10:01:24;;;;;;;6.65;3.45;;;;;;;7.19;78.74;101485.53;5007890;28;20052;-42
2023/11/22 10:03:51;;;;;;;5.65;1.75;;;;;;;7.26;79.34;101491.75;5007902;28;20049;-43
2023/11/22 10:06:18;;;;;;;5.75;1.98;;;;;;;7.34;78.72;101494.63;5015969;28;20109;-47
2023/11/22 10:08:47;;;;;;;4.55;2.15;;;;;;;7.41;78.97;101509.47;5011776;28;20053;-47
2023/11/22 10:11:17;;;;;;;5.57;2.15;;;;;;;7.44;79.42;101506.97;5004728;28;20058;-48
2023/11/22 10:13:48;;;;;;;10.85;2.20;;;;;;;7.51;78.26;101509.78;5012728;28;21575;-43
2023/11/22 10:16:16;;;;;;;4.93;2.40;;;;;;;7.58;78.94;101511.72;5005344;28;20077;-42
2023/11/22 10:18:46;;;;;;;4.72;1.65;;;;;;;7.62;79.16;101500.69;5016581;28;20056;-49
2023/11/22 10:24:01;;;;;;;9.75;3.25;;;;;;;7.70;78.92;101478.59;5121544;27;20396;-42
2023/11/22 10:26:29;;;;;;;3.53;1.52;;;;;;;7.75;78.94;101470.13;5058334;27;20462;-42
2023/11/22 10:28:57;;;;;;;4.22;2.55;;;;;;;7.80;78.13;101463.44;5078171;28;20048;-42
2023/11/22 10:31:25;;;;;;;7.40;2.80;;;;;;;7.89;78.32;101460.25;5073699;28;20074;-42
2023/11/22 10:33:53;;;;;;;10.23;2.75;;;;;;;7.96;78.31;101459.59;5051341;28;20087;-44
2023/11/22 10:36:21;;;;;;;4.47;2.35;;;;;;;8.04;78.09;101465.03;5062629;28;20044;-47
2023/11/22 10:38:50;;;;;;;3.05;2.75;;;;;;;8.10;78.21;101467.78;5068652;28;20497;-46
2023/11/22 10:41:20;;;;;;;3.70;2.30;;;;;;;8.18;78.72;101476.63;5058603;28;20083;-48
2023/11/22 10:43:47;;;;;;;4.40;2.75;;;;;;;8.23;77.98;101469.91;5071961;28;20064;-43
2023/11/22 10:46:16;;;;;;;5.18;2.15;;;;;;;8.36;78.53;101465.09;5061546;28;20056;-46
2023/11/22 10:48:44;;;;;;;2.83;2.05;;;;;;;8.45;78.10;101467.94;5068770;28;20752;-44
2023/11/22 10:51:14;;;;;;;2.40;1.88;;;;;;;8.53;78.27;101467.28;5055055;28;20041;-49
2023/11/22 10:53:49;;;;;;;5.38;2.83;;;;;;;8.60;78.09;101451.16;5065392;28;20123;-49
2023/11/22 10:56:19;;;;;;;5.18;2.45;;;;;;;8.69;77.85;101448.88;5063638;28;20049;-46
2023/11/22 11:01:25;;;;;;;5.10;2.20;;;;;;;9.06;77.29;101428.31;5048925;27;20415;-48
2023/11/22 11:04:04;;;;;;;5.75;2.53;;;;;;;8.97;77.82;101405.66;5011242;28;20050;-48
2023/11/22 11:06:33;;;;;;;5.47;1.77;;;;;;;9.00;78.00;101390.25;5010203;28;20049;-52
2023/11/22 11:09:05;;;;;;;2.83;1.33;;;;;;;9.06;78.27;101360.22;5015638;28;20518;-46
2023/11/22 11:11:33;;;;;;;2.60;1.40;;;;;;;9.09;77.66;101380.97;5010740;28;20045;-46
2023/11/22 11:14:02;;;;;;;2.80;1.00;;;;;;;9.06;77.85;101412.78;5001490;28;20101;-47
2023/11/22 11:16:32;;;;;;;2.13;1.15;;;;;;;9.13;77.45;101403.47;5010053;28;20053;-41
2023/11/22 11:18:59;;;;;;;2.15;1.33;;;;;;;9.16;77.71;101408.72;5008389;28;20047;-49
2023/11/22 11:21:26;;;;;;;3.90;1.48;;;;;;;9.20;77.96;101389.88;5010086;28;20052;-47
2023/11/22 11:23:57;;;;;;;3.42;1.50;;;;;;;9.25;77.52;101357.25;5008272;28;20081;-46
2023/11/22 11:26:25;;;;;;;4.70;2.30;;;;;;;9.27;77.84;101359.88;5013184;28;20129;-49
2023/11/22 11:28:52;;;;;;;3.25;1.20;;;;;;;9.25;77.84;101372.75;5007360;28;20050;-45
2023/11/22 11:31:21;;;;;;;4.63;1.27;;;;;;;9.34;77.21;101355.69;4997723;28;20050;-49
2023/11/22 11:36:31;;;;;;;2.15;0.95;;;;;;;9.43;77.23;101375.75;5114254;27;20373;-46
2023/11/22 11:39:01;;;;;;;3.65;1.02;;;;;;;9.51;77.09;101374.19;5040253;28;20049;-45
2023/11/22 11:41:32;;;;;;;8.38;4.03;;;;;;;9.59;77.31;101364.03;5065423;28;20055;-47
2023/11/22 11:44:02;;;;;;;4.95;1.92;;;;;;;9.63;77.29;101373.63;5041033;28;20135;-56